Denver, Colorado
Traffic Map
Current Weather Conditions
Denver, Colorado
Broken Clouds
Broken Clouds
19°
Feels Like: 19°
Wind Chill: 19° Ceiling: 14000
Heat Index: 19° Visibility: 10mi
Dew Point: 10° Wind: 2mph
Humidity: 56% Direction: 230° (SW)
Pressure: 30.06in Gusts: 0mph
Raw Report DataKBKF 250458Z 23002KT 10SM BKN140 19/10 A3006 RMK AO2A SLP091 T01910102
Traffic Incident Summary
Active as of:
Severity:
Category:
InformationThere was an issue retrieving the traffic information for this location. Please try a different location or try again shortly.
Advertisements
Track Severe Weather on mobile